createdAt,value
2022-11-10T00:01:43.624Z,1011.77
2022-11-10T00:16:44.267Z,1011.89
2022-11-10T00:31:45.586Z,1012.07
2022-11-10T00:46:45.931Z,1012.15
2022-11-10T01:01:46.052Z,1012.27
2022-11-10T01:16:46.169Z,1012.31
2022-11-10T01:31:46.772Z,1012.55
2022-11-10T01:46:47.355Z,1012.71
2022-11-10T02:01:48.498Z,1012.83
2022-11-10T02:16:49.116Z,1013.04
2022-11-10T02:31:49.263Z,1013.09
2022-11-10T02:46:49.302Z,1013.28
2022-11-10T03:01:49.952Z,1013.46
2022-11-10T03:16:51.619Z,1013.67
2022-11-10T03:31:52.254Z,1013.93
2022-11-10T03:46:52.767Z,1014.10
2022-11-10T04:01:53.464Z,1014.22
2022-11-10T04:16:54.005Z,1014.40
2022-11-10T04:31:54.116Z,1014.61
2022-11-10T04:46:54.182Z,1014.72
2022-11-10T05:01:54.299Z,1014.87
2022-11-10T05:16:54.370Z,1015.00
2022-11-10T05:31:55.621Z,1015.49
2022-11-10T05:46:56.548Z,1015.82
2022-11-10T06:01:56.820Z,1016.04
2022-11-10T06:16:56.914Z,1016.40
2022-11-10T06:31:57.624Z,1016.74
2022-11-10T06:46:58.609Z,1017.12
2022-11-10T07:01:59.358Z,1017.45
2022-11-10T07:16:59.837Z,1017.61
2022-11-10T07:32:00.494Z,1018.00
2022-11-10T07:47:01.641Z,1018.16
2022-11-10T08:02:03.281Z,1018.44
2022-11-10T08:17:04.250Z,1018.62
2022-11-10T08:32:06.157Z,1018.74
2022-11-10T08:47:07.747Z,1019.02
2022-11-10T09:02:07.860Z,1019.33
2022-11-10T09:17:08.606Z,1019.51
2022-11-10T09:32:09.542Z,1019.67
2022-11-10T09:47:12.140Z,1019.88
2022-11-10T10:02:12.752Z,1019.97
2022-11-10T10:17:13.342Z,1020.04
2022-11-10T10:32:12.942Z,1020.03
2022-11-10T10:47:13.022Z,1020.24
2022-11-10T11:02:13.800Z,1020.22
2022-11-10T11:17:14.762Z,1020.17
2022-11-10T11:32:16.203Z,1020.33
2022-11-10T11:47:16.709Z,1020.29
2022-11-10T12:02:16.911Z,1020.22
2022-11-10T12:17:17.417Z,1020.35
2022-11-10T12:32:17.521Z,1020.44
2022-11-10T12:47:18.682Z,1020.55
2022-11-10T13:02:20.093Z,1020.87
2022-11-10T13:17:20.943Z,1020.87
2022-11-10T13:32:21.572Z,1021.05
2022-11-10T13:47:21.701Z,1021.03
2022-11-10T14:02:21.773Z,1021.21
2022-11-10T14:17:22.361Z,1021.52
2022-11-10T14:32:22.570Z,1021.60
2022-11-10T14:47:22.587Z,1021.92
2022-11-10T15:02:24.133Z,1022.13
2022-11-10T15:17:24.633Z,1022.12
2022-11-10T15:32:26.111Z,1022.35
2022-11-10T15:47:26.796Z,1022.16
2022-11-10T16:02:27.437Z,1022.14
2022-11-10T16:17:28.003Z,1022.35
2022-11-10T16:32:28.822Z,1022.67
2022-11-10T16:47:29.699Z,1022.73
2022-11-10T17:02:29.444Z,1022.85
2022-11-10T17:17:29.450Z,1023.13
2022-11-10T17:32:58.040Z,1023.50
2022-11-10T17:47:35.706Z,1023.42
2022-11-10T18:02:36.709Z,1023.34
2022-11-10T18:17:36.945Z,1023.34
2022-11-10T18:32:37.510Z,1023.49
2022-11-10T18:47:37.684Z,1023.51
2022-11-10T19:02:37.622Z,1023.59
2022-11-10T19:17:39.151Z,1023.70
2022-11-10T19:32:40.361Z,1023.57
2022-11-10T19:47:40.546Z,1023.74
2022-11-10T20:02:45.370Z,1023.76
2022-11-10T20:17:46.220Z,1024.13
2022-11-10T20:32:46.963Z,1024.33
2022-11-10T20:47:48.950Z,1024.41
2022-11-10T21:02:49.478Z,1024.75
2022-11-10T21:17:49.810Z,1024.60
2022-11-10T21:32:49.707Z,1024.42
2022-11-10T21:47:49.921Z,1024.52
2022-11-10T22:02:49.909Z,1024.67
2022-11-10T22:17:50.230Z,1024.86
2022-11-10T22:32:50.133Z,1024.92
2022-11-10T22:47:50.338Z,1025.00
2022-11-10T23:02:51.359Z,1024.87
2022-11-10T23:17:51.605Z,1025.12
2022-11-10T23:32:52.112Z,1025.08
2022-11-10T23:47:54.092Z,1025.16
